METAR Data
IDs: Format: Raw Decoded Include TAF

Data at: 1519 UTC 21 Sep 2018

KPEX 211515Z AUTO 31014G22KT 10SM OVC018 09/07 A3010 RMK AO2 T00850065
KPEX 211455Z AUTO 30016G21KT 10SM OVC016 09/07 A3008 RMK AO2 T00850068
KPEX 211435Z AUTO 29013G21KT 10SM OVC016 09/07 A3006 RMK AO2 T00850071
KPEX 211415Z AUTO 29014G19KT 10SM OVC016 09/07 A3005 RMK AO2 T00850073
KPEX 211355Z AUTO 30013G17KT 10SM OVC020 09/07 A3002 RMK AO2 T00880072
KPEX 211335Z AUTO 30012G22KT 10SM OVC018 09/07 A3000 RMK AO2 T00890071
KPEX 211315Z AUTO 30014G23KT 10SM OVC018 09/08 A2998 RMK AO2 T00890078
KPEX 211255Z AUTO 29010KT 10SM OVC018 09/08 A2997 RMK AO2 T00900081
KPEX 211235Z AUTO 30011G20KT 10SM SCT014 BKN021 OVC038 09/08 A2994 RMK AO2 T00900081
KPEX 211215Z AUTO 29009KT 10SM SCT009 BKN020 OVC050 09/09 A2993 RMK AO2 T00890085
KPEX 211155Z AUTO 29009G19KT 7SM SCT010 BKN013 OVC020 09/09 A2990 RMK AO2 70090 T00880086 10135 20086
KPEX 211135Z AUTO 30009G18KT 4SM -RA BKN009 BKN014 OVC020 09/09 A2988 RMK AO2 T00870086
KPEX 211115Z AUTO 29015G18KT 4SM BR OVC009 09/09 A2986 RMK AO2 T00860085
KPEX 211055Z AUTO 28016G21KT 10SM OVC009 09/09 A2984 RMK AO2 T00880085
KPEX 211035Z AUTO 28013G21KT 10SM OVC007 09/09 A2983 RMK AO2 T00880085
KPEX 211015Z AUTO 28016G22KT 10SM OVC007 09/08 A2981 RMK AO2 T00870084
KPEX 210955Z AUTO 28011G24KT 10SM OVC007 09/09 A2980 RMK AO2 T00940090
KPEX 210935Z AUTO 28020G26KT 10SM OVC007 10/09 A2979 RMK AO2 T00950091
KPEX 210915Z AUTO 27021G26KT 10SM OVC007 10/10 A2977 RMK AO2 T01010098
KPEX 210855Z AUTO 28014G23KT 10SM BKN009 OVC016 11/11 A2975 RMK AO2 T01100105
KPEX 210835Z AUTO 27020G29KT 10SM BKN014 BKN021 12/11 A2974 RMK AO2 T01150110
KPEX 210815Z AUTO 28017G24KT 10SM BKN014 BKN019 12/11 A2973 RMK AO2 T01170111
KPEX 210755Z AUTO 28014G22KT 10SM SCT010 BKN014 BKN024 12/12 A2972 RMK AO2 T01190115
KPEX 210735Z AUTO 28017G22KT 10SM SCT009 SCT014 BKN022 12/12 A2970 RMK AO2 T01210119
KPEX 210715Z AUTO 28017G22KT 7SM SCT011 SCT020 OVC027 13/13 A2969 RMK AO2 T01260125
KPEX 210655Z AUTO 27016G25KT 10SM SCT008 SCT011 OVC027 13/13 A2969 RMK AO2 T01280126
KPEX 210635Z AUTO 27015G19KT 5SM -DZ BKN008 BKN014 OVC019 13/13 A2968 RMK AO2 T01300131
KPEX 210615Z AUTO 27015G20KT 7SM BKN008 OVC016 13/13 A2967 RMK AO2 T01320134
KPEX 210555Z AUTO 27016G22KT 10SM BKN008 OVC012 14/14 A2966 RMK AO2 60002 T01350135 10160 20135 401600122
KPEX 210535Z AUTO 27015G20KT 5SM BR BKN006 OVC012 14/14 A2966 RMK AO2 T01370138
KPEX 210515Z AUTO 26018G21KT 5SM BR OVC006 14/14 A2965 RMK AO2 T01410141
KPEX 210455Z AUTO 26010KT 2 1/2SM BR OVC004 14/14 A2964 RMK AO2 T01410141
KPEX 210435Z AUTO 27010KT 7SM OVC004 14/14 A2963 RMK AO2 T01420142
KPEX 210415Z AUTO 27012KT 5SM BR OVC004 14/14 A2962 RMK AO2 T01420143
KPEX 210355Z AUTO 27007KT 10SM OVC006 15/15 A2962 RMK AO2 T01450145
KPEX 210335Z AUTO 29007KT 10SM BKN004 BKN008 OVC013 15/15 A2960 RMK AO2 T01470147
KPEX 210315Z AUTO 29007KT 4SM BR OVC002 15/15 A2959 RMK AO2 T01500151
KPEX 210255Z AUTO 29007KT 2SM -DZ OVC002 15/16 A2959 RMK AO2 60002 T01530155
KPEX 210235Z AUTO 29006KT 4SM -RA BKN002 OVC009 16/16 A2958 RMK AO2 T01560157
KPEX 210215Z AUTO 28006KT 5SM -RA SCT002 BKN011 OVC016 16/16 A2958 RMK AO2 T01570158
KPEX 210155Z AUTO 00000KT 5SM BR SCT004 BKN009 OVC013 16/16 A2957 RMK AO2 P0002 T01570159
KPEX 210135Z AUTO 00000KT 4SM DZ BKN004 OVC007 16/16 A2957 RMK AO2 T01580160
KPEX 210115Z AUTO 00000KT 5SM -DZ OVC004 16/16 A2956 RMK AO2 T01570159
KPEX 210055Z AUTO 29005KT 7SM RA OVC004 16/16 A2955 RMK AO2 T01580160
KPEX 210035Z AUTO 02003KT 7SM OVC004 16/16 A2954 RMK AO2 T01600160
KPEX 210015Z AUTO 06004KT 10SM OVC004 16/16 A2954 RMK AO2 LTG DSNT E T01600160
KPEX 202355Z AUTO 03004KT 10SM OVC004 16/16 A2955 RMK AO2 P0015 60059 T01600160 10160 20147
KPEX 202335Z AUTO 06004KT 10SM -RA BKN004 OVC011 16/16 A2956 RMK AO2 P0015 T01590160
KPEX 202316Z AUTO 05006KT 4SM +RA BKN006 OVC013 16/16 A2955 RMK AO2 LTG DSNT E AND SE P0011 T01570158
KPEX 202255Z AUTO 09006KT 5SM RA BKN006 OVC015 16/16 A2958 RMK AO2 LTG DSNT E THRU S P0027 T01570158
KPEX 202235Z AUTO 05004KT 4SM TSRA BKN006 BKN011 OVC018 16/16 A2959 RMK AO2 LTG DSNT E AND S P0018 T01560157
KPEX 202215Z AUTO 04007KT 4SM TSRA BKN006 BKN010 OVC020 16/16 A2960 RMK AO2 LTG DSNT NE THRU S P0006 T01560157
KPEX 202155Z AUTO 05008KT 7SM -VCTSRA OVC006 16/16 A2961 RMK AO2 LTG DSNT E THRU S P0015 T01560157
KPEX 202135Z AUTO 07008KT 7SM -TSRA OVC006 16/16 A2963 RMK AO2 LTG DSNT ALQS P0012 T01550156
KPEX 202115Z AUTO 06010KT 5SM VCTSRA BKN006 OVC010 16/16 A2962 RMK AO2 LTG DSNT E THRU SW P0006 T01550156
KPEX 202055Z AUTO 06006KT 7SM -VCTSRA OVC006 16/16 A2968 RMK AO2 LTG DSNT E THRU W P0001 60001 T01560157
KPEX 202035Z AUTO 08010KT 4SM -RA OVC006 16/16 A2966 RMK AO2 LTG DSNT E THRU SW P0001 T01560157
KPEX 202015Z AUTO 09009KT 10SM OVC006 16/16 A2970 RMK AO2 LTG DSNT E AND SE T01570158
KPEX 201955Z AUTO 07009G14KT 7SM OVC006 16/16 A2970 RMK AO2 LTG DSNT E T01560157
KPEX 201935Z AUTO 06007KT 4SM -RA OVC002 15/15 A2972 RMK AO2 LTG DSNT E T01520154
KPEX 201915Z AUTO 07011KT 3SM -VCTSDZ OVC002 15/15 A2972 RMK AO2 LTG DSNT E T01500151
KPEX 201855Z AUTO 07007KT 1 1/4SM RA OVC002 15/15 A2977 RMK AO2 T01500150
KPEX 201835Z AUTO 05007KT 2SM -DZ OVC002 15/15 A2977 RMK AO2 T01480150
KPEX 201815Z AUTO 06008KT 2 1/2SM BR OVC004 15/15 A2978 RMK AO2 T01470147
KPEX 201755Z AUTO 06007KT 030V090 4SM BR OVC004 15/15 A2981 RMK AO2 60029 T01470148 10147 20122
KPEX 201735Z AUTO 09010KT 7SM OVC004 15/15 A2980 RMK AO2 T01460146
KPEX 201715Z AUTO 07009G15KT 7SM OVC004 14/15 A2982 RMK AO2 T01440145
KPEX 201655Z AUTO 09011KT 10SM RA OVC004 14/14 A2983 RMK AO2 P0005 T01410141
KPEX 201635Z AUTO 08008KT 7SM -RA OVC006 14/14 A2985 RMK AO2 P0003 T01390140
KPEX 201615Z AUTO 08009G14KT 10SM -RA OVC006 14/14 A2987 RMK AO2 T01360137
KPEX 201555Z AUTO 07013G19KT 10SM -RA OVC006 14/14 A2986 RMK AO2 P0003 T01360137
KPEX 201535Z AUTO 08009G15KT 10SM -RA OVC006 14/14 A2989 RMK AO2 P0003 T01350135
KPEX 201515Z AUTO 09008KT 7SM -RA OVC006 13/13 A2990 RMK AO2 P0002 T01310132
KPEX 201455Z AUTO 09010G15KT 5SM -RA OVC006 13/13 A2991 RMK AO2 P0011 60020 T01300130
KPEX 201435Z AUTO 09008KT 7SM -RA OVC006 13/13 A2994 RMK AO2 P0006 T01270129
KPEX 201415Z AUTO 08006KT 10SM -RA OVC006 13/13 A2995 RMK AO2 P0003 T01260127
KPEX 201355Z AUTO 07007KT 7SM -RA OVC006 13/13 A2995 RMK AO2 P0006 T01250126
KPEX 201335Z AUTO 07007KT 5SM -RA OVC006 13/13 A2996 RMK AO2 P0003 T01250126
KPEX 201315Z AUTO 07010KT 10SM DZ OVC006 13/13 A2995 RMK AO2 T01250125
KPEX 201255Z AUTO 06009KT 7SM -DZ OVC004 12/13 A2995 RMK AO2 P0003 T01230125
KPEX 201235Z AUTO 05008KT 7SM DZ OVC004 12/13 A2995 RMK AO2 P0003 T01230125
KPEX 201215Z AUTO 05009G14KT 5SM DZ OVC004 12/12 A2995 RMK AO2 P0002 T01230124
KPEX 201155Z AUTO 06008KT 3SM -RA OVC004 12/13 A2996 RMK AO2 P0001 60001 70013 T01230125 10127 20122
KPEX 201135Z AUTO 06010KT 4SM RA OVC004 12/13 A2997 RMK AO2 T01230125
KPEX 201115Z AUTO 06008KT 7SM OVC004 12/13 A2998 RMK AO2 T01230125
KPEX 201055Z AUTO 06009G14KT 5SM BR OVC004 12/13 A2997 RMK AO2 T01230125
KPEX 201035Z AUTO 05010KT 5SM BR OVC004 12/13 A2996 RMK AO2 T01230125
KPEX 201015Z AUTO 04009KT 5SM BR OVC004 12/13 A2997 RMK AO2 T01230125
KPEX 200955Z AUTO 05010G14KT 5SM BR OVC004 12/13 A2997 RMK AO2 T01230125
KPEX 200935Z AUTO 06010G14KT 5SM BR OVC006 12/13 A2996 RMK AO2 T01240125
KPEX 200915Z AUTO 05007KT 5SM BR OVC006 13/13 A2999 RMK AO2 T01250125
KPEX 200855Z AUTO 04008KT 10SM OVC006 13/13 A3000 RMK AO2 T01260125
KPEX 200835Z AUTO 05006KT 10SM OVC006 13/12 A3001 RMK AO2 T01260124
KPEX 200815Z AUTO 06007KT 10SM OVC006 13/12 A3000 RMK AO2 T01260124
KPEX 200755Z AUTO 06006KT 10SM OVC008 13/12 A3001 RMK AO2 T01260123
KPEX 200735Z AUTO 07007KT 10SM OVC008 13/12 A3002 RMK AO2 T01260121
KPEX 200715Z AUTO 06008KT 10SM OVC008 13/12 A3002 RMK AO2 T01250120
KPEX 200655Z AUTO 06007KT 10SM BKN010 OVC015 13/12 A3002 RMK AO2 T01250120
KPEX 200635Z AUTO 04008KT 10SM SCT010 OVC015 13/12 A3002 RMK AO2 T01250118
KPEX 200615Z AUTO 05009G14KT 10SM BKN015 OVC023 13/12 A3003 RMK AO2 T01260118
KPEX 200555Z AUTO 05009G14KT 10SM OVC015 13/12 A3003 RMK AO2 T01260118 10136 20126 401510123
KPEX 200535Z AUTO 06011G15KT 10SM SCT009 OVC015 13/12 A3003 RMK AO2 T01270118
KPEX 200515Z AUTO 05009KT 10SM BKN009 OVC013 13/12 A3004 RMK AO2 T01270123
KPEX 200455Z AUTO 05010KT 10SM OVC007 13/12 A3003 RMK AO2 T01270123
KPEX 200435Z AUTO 04009KT 10SM OVC007 13/13 A3004 RMK AO2 T01280125
KPEX 200415Z AUTO 04006KT 10SM OVC007 13/13 A3003 RMK AO2 T01300125
KPEX 200355Z AUTO 04007KT 10SM OVC007 13/13 A3004 RMK AO2 T01300126
KPEX 200335Z AUTO 05008KT 10SM OVC007 13/13 A3004 RMK AO2 T01300127